Time;durP1;ratioP1;P1;durP2;ratioP2;P2;SDS_P1;SDS_P2;PMS_P1;PMS_P2;Temp;Humidity;BMP_temperature;BMP_pressure;BME280_temperature;BME280_humidity;BME280_pressure;Samples;Min_cycle;Max_cycle;Signal;HPM_P1;HPM_P2
2022/11/16 00:02:10;;;;;;;2.80;1.20;;;22.60;79.60;;;;;;4990889;28;20476;-70
2022/11/16 00:04:37;;;;;;;1.43;0.97;;;22.60;79.60;;;;;;4983722;28;20471;-74
2022/11/16 00:07:04;;;;;;;5.00;1.53;;;22.50;79.60;;;;;;4987549;28;20954;-75
2022/11/16 00:09:32;;;;;;;1.90;1.13;;;22.50;79.90;;;;;;4985344;28;20910;-74
2022/11/16 00:12:03;;;;;;;3.40;1.07;;;22.50;80.10;;;;;;4993201;28;20491;-75
2022/11/16 00:14:32;;;;;;;2.80;1.10;;;22.50;80.10;;;;;;4986666;28;21010;-75
2022/11/16 00:16:59;;;;;;;3.60;1.33;;;22.50;80.00;;;;;;5006575;28;20492;-75
2022/11/16 00:19:27;;;;;;;4.50;1.00;;;22.50;79.90;;;;;;4982614;28;20480;-75
2022/11/16 00:21:54;;;;;;;1.20;1.10;;;22.60;80.00;;;;;;4981519;28;20467;-75
2022/11/16 00:24:23;;;;;;;4.20;1.30;;;22.50;79.70;;;;;;4985956;28;21024;-74
2022/11/16 00:26:56;;;;;;;3.80;1.33;;;22.50;79.80;;;;;;4987215;28;20492;-75
2022/11/16 00:29:24;;;;;;;1.80;1.10;;;22.50;79.80;;;;;;4987575;28;20456;-74
2022/11/16 00:31:52;;;;;;;1.93;1.10;;;22.50;79.80;;;;;;4993512;28;20459;-74
2022/11/16 00:34:20;;;;;;;1.73;1.00;;;22.50;79.90;;;;;;4988490;28;20460;-74
2022/11/16 00:36:46;;;;;;;1.70;1.60;;;22.50;80.00;;;;;;4990062;28;21046;-74
2022/11/16 00:39:15;;;;;;;4.37;1.17;;;22.50;80.10;;;;;;4990251;28;20486;-74
2022/11/16 00:41:42;;;;;;;1.07;0.90;;;22.40;80.10;;;;;;4989111;28;20461;-74
2022/11/16 00:44:11;;;;;;;1.57;1.00;;;22.40;80.30;;;;;;4987211;28;20468;-75
2022/11/16 00:46:37;;;;;;;1.30;0.90;;;22.40;80.40;;;;;;4992980;28;21007;-75
2022/11/16 00:49:06;;;;;;;1.57;1.00;;;22.40;80.50;;;;;;4991977;28;20656;-74
2022/11/16 00:51:32;;;;;;;3.57;1.00;;;22.40;80.60;;;;;;4986230;28;20460;-75
2022/11/16 00:53:59;;;;;;;2.05;1.10;;;22.30;80.60;;;;;;4988322;28;20452;-74
2022/11/16 00:56:26;;;;;;;1.70;1.20;;;22.30;80.70;;;;;;4989583;28;20197;-74
2022/11/16 00:58:52;;;;;;;1.20;1.10;;;22.30;80.70;;;;;;4986057;28;20483;-74
2022/11/16 01:01:20;;;;;;;1.17;0.87;;;22.20;80.80;;;;;;4985338;28;20464;-75
2022/11/16 01:03:47;;;;;;;1.20;1.00;;;22.20;80.90;;;;;;4980550;28;20468;-74
2022/11/16 01:06:15;;;;;;;1.00;0.90;;;22.20;81.00;;;;;;4986191;28;20918;-74
2022/11/16 01:08:43;;;;;;;1.77;1.00;;;22.20;81.10;;;;;;4993535;28;20943;-74
2022/11/16 01:13:55;;;;;;;1.35;0.95;;;22.10;81.30;;;;;;4985542;28;20500;-75
2022/11/16 01:16:24;;;;;;;1.50;1.10;;;22.10;81.40;;;;;;4991681;28;20232;-74
2022/11/16 01:18:52;;;;;;;1.27;1.10;;;22.00;81.40;;;;;;4990919;28;20925;-75
2022/11/16 01:21:20;;;;;;;1.53;1.20;;;22.00;81.70;;;;;;4997272;28;20703;-75
2022/11/16 01:23:46;;;;;;;1.00;0.90;;;22.00;81.80;;;;;;4983986;28;20467;-75
2022/11/16 01:26:13;;;;;;;1.10;0.90;;;22.00;81.90;;;;;;4997087;28;20459;-75
2022/11/16 01:28:40;;;;;;;1.50;1.10;;;21.90;81.90;;;;;;4999912;28;20460;-75
2022/11/16 01:31:08;;;;;;;1.13;1.02;;;21.90;82.10;;;;;;4988103;28;20201;-75
2022/11/16 01:33:37;;;;;;;1.13;1.02;;;21.90;82.20;;;;;;4984782;28;20833;-74
2022/11/16 01:36:13;;;;;;;1.60;1.10;;;21.80;82.20;;;;;;4989989;28;20226;-75
2022/11/16 01:38:41;;;;;;;1.75;1.05;;;21.80;82.40;;;;;;4997255;28;20490;-75
2022/11/16 01:41:08;;;;;;;1.55;1.35;;;21.80;82.50;;;;;;4991426;28;20287;-74
2022/11/16 01:43:54;;;;;;;1.10;0.90;;;21.80;82.60;;;;;;4987303;28;20572;-75
2022/11/16 01:46:21;;;;;;;1.65;1.17;;;21.70;82.70;;;;;;4987067;28;20662;-74
2022/11/16 01:48:53;;;;;;;1.20;0.90;;;21.70;82.80;;;;;;4984567;28;22095;-75
2022/11/16 01:51:21;;;;;;;1.20;1.00;;;21.70;82.90;;;;;;4987518;28;20201;-75
2022/11/16 01:53:48;;;;;;;2.65;1.15;;;21.70;83.10;;;;;;4995020;28;20212;-74
2022/11/16 01:56:15;;;;;;;3.78;1.70;;;21.60;83.10;;;;;;4993891;28;20206;-74
2022/11/16 01:58:42;;;;;;;1.23;1.08;;;21.60;83.30;;;;;;4987096;28;20225;-74
2022/11/16 02:01:08;;;;;;;1.35;1.00;;;21.60;83.40;;;;;;4982580;28;20204;-74
2022/11/16 02:03:37;;;;;;;1.20;0.93;;;21.50;83.50;;;;;;4984358;28;20224;-75
2022/11/16 02:06:37;;;;;;;1.42;1.33;;;21.50;83.60;;;;;;4981603;28;20197;-75
2022/11/16 02:09:53;;;;;;;1.33;1.23;;;21.50;83.80;;;;;;4992608;28;20196;-74
2022/11/16 02:13:02;;;;;;;1.10;0.90;;;21.50;84.00;;;;;;4959519;28;20695;-74
2022/11/16 02:15:34;;;;;;;1.20;1.00;;;21.40;84.10;;;;;;4907373;29;20234;-73
2022/11/16 02:18:15;;;;;;;2.03;1.00;;;21.40;84.20;;;;;;4975878;28;20201;-75
2022/11/16 02:21:08;;;;;;;1.35;1.25;;;21.30;84.30;;;;;;4989892;28;20212;-74
2022/11/16 02:24:21;;;;;;;1.10;0.98;;;21.30;84.50;;;;;;4989982;28;20212;-74
2022/11/16 02:27:21;;;;;;;1.20;1.02;;;21.30;84.70;;;;;;4989000;28;20208;-74
2022/11/16 02:29:51;;;;;;;2.03;0.98;;;21.30;84.80;;;;;;4990712;28;20196;-74
2022/11/16 02:32:25;;;;;;;1.02;0.90;;;21.30;85.00;;;;;;5003070;28;20663;-74
2022/11/16 02:34:56;;;;;;;1.10;0.90;;;21.20;85.10;;;;;;4988660;28;20688;-74
2022/11/16 02:37:25;;;;;;;2.05;1.08;;;21.20;85.20;;;;;;4988850;28;20205;-75
2022/11/16 02:39:56;;;;;;;1.00;0.80;;;21.20;85.40;;;;;;5005431;28;20224;-75
2022/11/16 02:42:28;;;;;;;1.00;0.90;;;21.20;85.60;;;;;;4987187;28;20201;-75
2022/11/16 02:44:59;;;;;;;1.50;1.17;;;21.10;85.60;;;;;;4997140;28;20205;-74
2022/11/16 02:47:30;;;;;;;2.05;1.10;;;21.10;85.80;;;;;;4998519;28;20199;-75
2022/11/16 02:50:02;;;;;;;2.00;0.95;;;21.10;85.90;;;;;;4984927;28;20201;-75
2022/11/16 02:52:29;;;;;;;1.10;0.90;;;21.10;86.00;;;;;;4998011;28;20201;-74
2022/11/16 02:54:56;;;;;;;1.38;1.02;;;21.10;86.30;;;;;;4995392;28;20205;-75
2022/11/16 02:57:34;;;;;;;1.38;0.88;;;21.00;86.30;;;;;;4990123;28;20201;-74
2022/11/16 03:00:06;;;;;;;1.20;0.93;;;21.00;86.40;;;;;;4984599;28;20590;-74
2022/11/16 03:02:42;;;;;;;1.00;0.80;;;21.00;86.70;;;;;;4993731;28;20644;-75
2022/11/16 03:05:14;;;;;;;2.03;1.10;;;20.90;86.60;;;;;;4996795;28;20196;-74
2022/11/16 03:07:47;;;;;;;1.20;1.00;;;20.90;86.80;;;;;;4995733;28;20197;-75
2022/11/16 03:11:58;;;;;;;1.42;0.82;;;20.90;87.00;;;;;;5006222;28;20216;-74
2022/11/16 03:13:05;;;;;;;1.00;0.90;;;20.90;87.20;;;;;;4978720;28;20326;-75
2022/11/16 03:15:35;;;;;;;1.10;0.93;;;20.80;87.30;;;;;;4992923;28;20689;-74
2022/11/16 03:18:04;;;;;;;1.30;1.13;;;20.80;87.50;;;;;;4997495;28;20216;-74
2022/11/16 03:20:34;;;;;;;1.40;0.95;;;20.80;87.60;;;;;;5002679;28;20197;-74
2022/11/16 03:23:03;;;;;;;1.13;0.80;;;20.80;87.80;;;;;;4989011;28;20201;-75
2022/11/16 03:25:35;;;;;;;1.10;1.00;;;20.70;87.80;;;;;;4999960;28;20208;-74
2022/11/16 03:28:07;;;;;;;1.10;0.90;;;20.70;88.00;;;;;;4993246;28;20200;-75
2022/11/16 03:30:38;;;;;;;1.10;0.80;;;20.70;88.20;;;;;;4991948;28;20197;-75
2022/11/16 03:33:12;;;;;;;1.10;0.90;;;20.70;88.40;;;;;;4985775;28;20679;-75
2022/11/16 03:35:43;;;;;;;1.10;0.90;;;20.70;88.60;;;;;;4989752;28;20568;-74
2022/11/16 03:38:12;;;;;;;1.63;1.17;;;20.70;88.70;;;;;;5002815;28;20207;-74
2022/11/16 03:40:40;;;;;;;1.65;1.10;;;20.60;88.80;;;;;;4992181;28;20205;-75
2022/11/16 03:43:08;;;;;;;0.90;0.73;;;20.60;88.90;;;;;;4984767;28;20599;-76
2022/11/16 03:45:37;;;;;;;1.17;1.08;;;20.60;89.10;;;;;;4985831;28;20202;-75
2022/11/16 03:48:06;;;;;;;1.20;1.10;;;20.60;89.20;;;;;;4995597;28;20197;-76
2022/11/16 03:50:33;;;;;;;1.35;1.17;;;20.50;89.30;;;;;;4986749;28;20190;-73
2022/11/16 03:52:59;;;;;;;1.13;0.90;;;20.50;89.60;;;;;;4992174;28;20204;-74
2022/11/16 03:55:26;;;;;;;1.20;1.00;;;20.50;89.70;;;;;;4988294;28;20193;-74
2022/11/16 03:57:53;;;;;;;1.13;0.95;;;20.50;89.90;;;;;;4986615;28;20217;-74
2022/11/16 04:00:20;;;;;;;0.90;0.77;;;20.40;90.00;;;;;;4984953;28;20232;-74
2022/11/16 04:02:48;;;;;;;1.10;0.90;;;20.50;90.10;;;;;;4988292;28;20276;-74
2022/11/16 04:24:39;;;;;;;1.15;0.95;;;20.30;90.70;;;;;;4987918;28;20205;-74
2022/11/16 04:30:04;;;;;;;1.05;0.82;;;20.20;90.80;;;;;;4961960;28;20212;-73
2022/11/16 04:38:01;;;;;;;1.08;0.80;;;20.20;91.00;;;;;;4986387;28;20208;-74
2022/11/16 04:40:28;;;;;;;0.90;0.80;;;20.20;91.10;;;;;;4991707;28;20216;-73
2022/11/16 04:42:55;;;;;;;1.10;0.98;;;20.20;91.20;;;;;;4991078;28;20201;-73
2022/11/16 04:48:08;;;;;;;0.90;0.77;;;20.20;91.70;;;;;;4989106;28;20217;-72
2022/11/16 04:50:37;;;;;;;1.10;0.90;;;20.30;91.70;;;;;;4988618;28;20189;-72
2022/11/16 04:53:05;;;;;;;1.13;1.02;;;20.40;91.60;;;;;;5002768;28;20192;-73
2022/11/16 04:55:32;;;;;;;1.00;0.70;;;20.40;91.30;;;;;;4993359;28;20287;-73
2022/11/16 04:57:59;;;;;;;1.30;0.90;;;20.50;91.40;;;;;;5002378;28;20192;-71
2022/11/16 05:00:26;;;;;;;1.00;0.90;;;20.50;91.20;;;;;;4989512;28;20599;-72
2022/11/16 05:02:53;;;;;;;1.20;1.10;;;20.60;91.10;;;;;;4982130;28;20212;-72
2022/11/16 05:05:20;;;;;;;1.10;0.80;;;20.70;91.20;;;;;;4983023;28;20204;-72
2022/11/16 05:07:48;;;;;;;0.90;0.70;;;20.70;91.10;;;;;;4991377;28;20467;-73
2022/11/16 05:10:15;;;;;;;1.00;0.90;;;20.80;91.00;;;;;;4997899;28;20201;-73
2022/11/16 05:12:41;;;;;;;0.90;0.80;;;20.80;90.90;;;;;;4984921;28;20463;-72
2022/11/16 05:15:09;;;;;;;0.90;0.70;;;20.80;90.90;;;;;;4994502;28;20239;-73
2022/11/16 05:17:36;;;;;;;1.13;1.02;;;20.90;90.80;;;;;;4984370;28;20464;-72
2022/11/16 05:22:54;;;;;;;1.00;0.90;;;21.00;90.60;;;;;;4992560;28;20208;-72
2022/11/16 05:25:20;;;;;;;1.15;0.90;;;20.90;90.60;;;;;;4990360;28;20243;-72
2022/11/16 05:27:47;;;;;;;1.10;0.80;;;20.90;90.50;;;;;;4995881;28;20208;-73
2022/11/16 05:30:14;;;;;;;1.07;0.80;;;21.00;90.60;;;;;;4986963;28;20456;-73
2022/11/16 05:32:41;;;;;;;1.00;0.87;;;21.00;90.50;;;;;;4986431;28;20460;-73
2022/11/16 05:35:08;;;;;;;1.00;0.80;;;21.00;90.50;;;;;;4988923;28;20459;-73
2022/11/16 05:37:35;;;;;;;1.00;0.90;;;21.00;90.50;;;;;;5002465;28;20213;-73
2022/11/16 05:40:03;;;;;;;1.40;1.00;;;21.00;90.50;;;;;;4993442;28;20681;-72
2022/11/16 05:42:30;;;;;;;1.53;1.00;;;21.00;90.60;;;;;;4982470;28;20932;-72
2022/11/16 05:44:57;;;;;;;0.90;0.70;;;21.10;90.50;;;;;;4987038;28;20459;-73
2022/11/16 05:47:23;;;;;;;1.00;0.80;;;21.20;90.30;;;;;;4989671;28;20508;-72
2022/11/16 05:49:50;;;;;;;1.00;0.80;;;21.30;90.20;;;;;;4981622;28;20847;-72
2022/11/16 05:52:17;;;;;;;1.43;0.80;;;21.30;90.10;;;;;;4989961;28;20464;-73
2022/11/16 05:54:43;;;;;;;0.90;0.80;;;21.30;90.00;;;;;;4990116;28;20464;-72
2022/11/16 05:57:11;;;;;;;1.00;0.80;;;21.40;90.00;;;;;;4982372;28;20962;-72
2022/11/16 05:59:38;;;;;;;0.90;0.70;;;21.50;89.60;;;;;;4984883;28;20488;-72
2022/11/16 06:02:05;;;;;;;1.33;0.97;;;21.50;89.30;;;;;;4986827;28;20468;-72
2022/11/16 06:04:33;;;;;;;0.90;0.70;;;21.50;89.20;;;;;;4981968;28;20467;-73
2022/11/16 06:06:59;;;;;;;1.37;0.80;;;21.50;89.20;;;;;;4996144;28;20455;-72
2022/11/16 06:09:26;;;;;;;0.93;0.70;;;21.50;89.00;;;;;;4994947;28;20532;-72
2022/11/16 06:11:53;;;;;;;0.90;0.70;;;21.50;88.90;;;;;;4978744;28;20467;-72
2022/11/16 06:14:21;;;;;;;1.10;1.00;;;21.50;88.80;;;;;;4985827;28;20471;-74
2022/11/16 06:16:47;;;;;;;1.10;0.97;;;21.50;88.70;;;;;;4990147;28;20504;-74
2022/11/16 06:19:14;;;;;;;1.00;0.80;;;21.60;88.70;;;;;;4986021;28;20979;-73
2022/11/16 06:21:41;;;;;;;1.10;1.00;;;21.50;88.50;;;;;;5001877;28;20466;-73
2022/11/16 06:24:08;;;;;;;0.90;0.80;;;21.60;88.50;;;;;;4994334;28;20831;-73
2022/11/16 06:26:35;;;;;;;1.20;0.90;;;21.60;88.50;;;;;;4987914;28;20487;-73
2022/11/16 06:29:02;;;;;;;1.20;0.87;;;21.60;88.40;;;;;;4992044;28;20970;-73
2022/11/16 06:31:31;;;;;;;0.90;0.70;;;21.70;88.30;;;;;;5003409;28;20487;-73
2022/11/16 06:33:58;;;;;;;1.10;0.70;;;21.70;88.10;;;;;;4999674;28;20460;-73
2022/11/16 06:36:24;;;;;;;0.90;0.70;;;21.80;87.90;;;;;;4988753;28;20460;-73
2022/11/16 06:38:51;;;;;;;1.30;0.80;;;21.80;87.80;;;;;;4986338;28;20467;-73
2022/11/16 06:41:18;;;;;;;1.30;0.70;;;21.90;87.60;;;;;;5003957;28;20475;-73
2022/11/16 06:43:45;;;;;;;1.30;0.80;;;21.90;87.40;;;;;;4993854;28;20978;-73
2022/11/16 06:46:12;;;;;;;0.90;0.70;;;22.00;87.30;;;;;;4985710;28;20471;-73
2022/11/16 06:48:40;;;;;;;1.53;0.80;;;22.00;87.00;;;;;;4998107;28;20464;-73
2022/11/16 06:51:06;;;;;;;1.00;0.70;;;22.00;86.80;;;;;;4982916;28;20460;-74
2022/11/16 06:53:34;;;;;;;1.20;0.70;;;22.10;86.70;;;;;;4986336;28;20465;-73
2022/11/16 06:56:02;;;;;;;0.90;0.80;;;22.00;86.60;;;;;;4997324;28;20982;-73
2022/11/16 06:58:30;;;;;;;0.90;0.70;;;22.00;86.50;;;;;;4985425;28;20460;-73
2022/11/16 07:00:56;;;;;;;0.90;0.80;;;22.00;86.30;;;;;;4990216;28;20480;-72
2022/11/16 07:03:23;;;;;;;1.10;0.80;;;22.10;86.40;;;;;;4986957;28;20845;-73
2022/11/16 07:05:51;;;;;;;1.00;0.83;;;22.10;86.40;;;;;;4990367;28;20974;-72
2022/11/16 07:08:18;;;;;;;1.10;0.80;;;22.10;86.40;;;;;;4992865;28;20467;-73
2022/11/16 07:10:45;;;;;;;1.00;0.80;;;22.10;86.20;;;;;;4993729;28;20451;-73
2022/11/16 07:13:12;;;;;;;0.90;0.77;;;22.20;86.10;;;;;;4997056;28;20460;-72
2022/11/16 07:15:38;;;;;;;1.00;0.77;;;22.20;85.90;;;;;;4989728;28;21002;-73
2022/11/16 07:18:06;;;;;;;1.00;0.77;;;22.20;85.80;;;;;;4995398;28;20502;-73
2022/11/16 07:20:33;;;;;;;1.23;1.00;;;22.20;85.60;;;;;;4991787;28;20479;-72
2022/11/16 07:23:02;;;;;;;0.90;0.70;;;22.30;85.50;;;;;;4988568;28;20455;-73
2022/11/16 07:25:29;;;;;;;1.20;1.00;;;22.30;85.30;;;;;;4990171;28;20460;-73
2022/11/16 07:27:58;;;;;;;1.00;0.80;;;22.30;85.10;;;;;;4999314;28;20465;-73
2022/11/16 07:30:24;;;;;;;1.07;0.90;;;22.30;85.00;;;;;;4987332;28;20491;-73
2022/11/16 07:32:51;;;;;;;1.20;1.00;;;22.40;85.00;;;;;;4986371;28;20778;-72
2022/11/16 07:35:18;;;;;;;1.20;0.90;;;22.40;84.90;;;;;;4984950;28;20452;-73
2022/11/16 07:37:44;;;;;;;0.80;0.70;;;22.30;84.70;;;;;;4994914;28;20484;-73
2022/11/16 07:40:13;;;;;;;0.90;0.70;;;22.40;84.80;;;;;;4990138;28;20483;-73
2022/11/16 07:42:40;;;;;;;0.90;0.60;;;22.30;84.60;;;;;;4985776;28;20472;-73
2022/11/16 07:45:09;;;;;;;0.90;0.70;;;22.40;84.80;;;;;;4988296;28;20456;-73
2022/11/16 07:47:36;;;;;;;1.20;1.10;;;22.40;84.80;;;;;;4991209;28;20464;-73
2022/11/16 07:50:04;;;;;;;1.10;0.93;;;22.40;84.80;;;;;;4988048;28;20965;-73
2022/11/16 07:52:31;;;;;;;1.00;0.73;;;22.40;84.60;;;;;;4986212;28;20924;-73
2022/11/16 07:54:57;;;;;;;1.00;0.80;;;22.40;84.50;;;;;;4989819;28;20452;-73
2022/11/16 07:57:26;;;;;;;0.90;0.70;;;22.50;84.50;;;;;;4993541;28;20464;-73
2022/11/16 07:59:52;;;;;;;1.00;0.80;;;22.50;84.40;;;;;;4980746;28;21041;-72
2022/11/16 08:02:19;;;;;;;1.00;0.80;;;22.50;84.30;;;;;;4989780;28;20460;-73
2022/11/16 08:04:46;;;;;;;0.80;0.60;;;22.50;84.20;;;;;;4986159;28;20963;-73
2022/11/16 08:07:13;;;;;;;1.00;0.73;;;22.60;84.00;;;;;;4984575;28;20449;-73
2022/11/16 08:09:39;;;;;;;0.90;0.80;;;22.60;83.90;;;;;;4991512;28;20508;-73
2022/11/16 08:12:06;;;;;;;1.00;0.80;;;22.60;83.80;;;;;;4982268;28;20472;-75
2022/11/16 08:14:34;;;;;;;3.57;1.17;;;22.60;83.70;;;;;;4986687;28;21010;-74
2022/11/16 08:17:02;;;;;;;0.97;0.80;;;22.70;83.80;;;;;;4983186;28;21030;-74
2022/11/16 08:19:29;;;;;;;1.03;0.77;;;22.60;83.50;;;;;;4984958;28;20567;-73
2022/11/16 08:21:56;;;;;;;1.27;0.70;;;22.70;83.50;;;;;;4991571;28;20448;-74
2022/11/16 08:24:22;;;;;;;1.10;1.00;;;22.60;83.40;;;;;;4983535;28;21008;-74
2022/11/16 08:26:49;;;;;;;1.07;0.80;;;22.70;83.40;;;;;;4990137;28;20460;-74
2022/11/16 08:29:16;;;;;;;0.93;0.80;;;22.70;83.40;;;;;;4989286;28;20456;-74
2022/11/16 08:31:45;;;;;;;1.10;0.70;;;22.70;83.40;;;;;;4998536;28;20452;-74
2022/11/16 08:34:11;;;;;;;1.00;0.70;;;22.70;83.40;;;;;;4989995;28;21282;-74
2022/11/16 08:36:38;;;;;;;0.97;0.73;;;22.70;83.30;;;;;;4999497;28;20459;-74
2022/11/16 08:39:05;;;;;;;1.10;1.00;;;22.80;83.30;;;;;;4989473;28;20894;-74
2022/11/16 08:41:34;;;;;;;1.13;0.80;;;22.80;83.20;;;;;;4987616;28;21253;-74
2022/11/16 08:44:01;;;;;;;1.67;0.90;;;22.80;83.10;;;;;;4986968;28;20541;-74
2022/11/16 08:46:28;;;;;;;1.37;0.83;;;22.80;83.00;;;;;;4993678;28;20951;-74
2022/11/16 08:48:57;;;;;;;0.90;0.60;;;22.80;82.80;;;;;;4986226;28;20456;-74
2022/11/16 08:51:24;;;;;;;4.50;0.90;;;22.80;82.80;;;;;;4990730;28;20455;-76
2022/11/16 08:53:55;;;;;;;1.37;0.80;;;22.90;82.90;;;;;;4987484;28;20461;-74
2022/11/16 08:56:22;;;;;;;1.63;0.80;;;22.90;82.70;;;;;;4978976;28;20860;-74
2022/11/16 08:58:52;;;;;;;1.10;0.90;;;22.90;82.60;;;;;;4988472;28;20460;-74
2022/11/16 09:01:20;;;;;;;1.10;0.70;;;22.90;82.50;;;;;;4986975;28;20518;-74
2022/11/16 09:03:47;;;;;;;1.47;0.70;;;22.90;82.40;;;;;;4992541;28;20461;-74
2022/11/16 09:06:15;;;;;;;1.00;0.80;;;22.90;82.40;;;;;;4986922;28;20468;-74
2022/11/16 09:08:43;;;;;;;0.90;0.70;;;22.90;82.40;;;;;;4987972;28;20534;-74
2022/11/16 09:11:12;;;;;;;1.40;0.73;;;22.90;82.40;;;;;;4993470;28;20973;-74
2022/11/16 09:13:39;;;;;;;9.17;1.13;;;22.90;82.30;;;;;;4984609;28;20957;-74
2022/11/16 09:16:07;;;;;;;4.23;0.90;;;23.00;83.50;;;;;;4985163;28;21013;-74
2022/11/16 09:18:34;;;;;;;9.40;0.90;;;23.10;83.40;;;;;;4982886;28;20472;-74
2022/11/16 09:21:01;;;;;;;1.20;0.80;;;23.10;83.40;;;;;;4989580;28;20476;-74
2022/11/16 09:23:29;;;;;;;5.73;1.00;;;23.10;83.20;;;;;;4987266;28;20457;-74
2022/11/16 09:25:56;;;;;;;1.80;0.73;;;23.10;83.10;;;;;;4985346;28;20490;-74
2022/11/16 09:28:23;;;;;;;3.43;0.90;;;23.10;82.90;;;;;;4987266;28;20825;-74
2022/11/16 09:30:51;;;;;;;1.00;0.90;;;23.10;82.80;;;;;;4987555;28;20480;-74
2022/11/16 09:33:18;;;;;;;5.73;0.93;;;23.10;82.80;;;;;;4986451;28;20460;-74
2022/11/16 09:35:45;;;;;;;1.00;0.70;;;23.10;82.70;;;;;;4991821;28;20460;-75
2022/11/16 09:38:12;;;;;;;1.20;0.90;;;23.10;82.60;;;;;;5002359;28;20459;-74
2022/11/16 09:40:44;;;;;;;6.13;0.97;;;23.00;82.10;;;;;;4992638;28;20488;-74
2022/11/16 09:43:21;;;;;;;5.10;0.80;;;23.00;82.60;;;;;;4983037;28;20463;-74
2022/11/16 09:45:57;;;;;;;1.63;0.80;;;23.10;82.70;;;;;;4993988;28;20467;-74
2022/11/16 09:48:24;;;;;;;0.97;0.70;;;23.10;82.70;;;;;;4983907;28;20940;-74
2022/11/16 09:50:54;;;;;;;1.10;0.70;;;23.10;82.50;;;;;;4992127;28;20460;-74
2022/11/16 09:53:30;;;;;;;1.50;1.40;;;23.10;82.30;;;;;;4987634;28;20484;-74
2022/11/16 09:56:01;;;;;;;1.30;0.73;;;23.20;82.30;;;;;;4988358;28;20464;-74
2022/11/16 09:58:31;;;;;;;1.03;0.80;;;23.20;82.20;;;;;;4988453;28;20463;-74
2022/11/16 10:01:04;;;;;;;1.83;0.90;;;23.30;82.10;;;;;;4989674;28;20480;-75
2022/11/16 10:03:38;;;;;;;1.47;0.97;;;23.30;82.00;;;;;;4980573;28;20457;-75
2022/11/16 10:06:10;;;;;;;1.20;0.90;;;23.30;81.90;;;;;;4996829;28;20490;-75
2022/11/16 10:08:43;;;;;;;1.50;0.73;;;23.30;81.80;;;;;;4983825;28;20844;-80
2022/11/16 10:11:42;;;;;;;5.53;1.00;;;23.30;82.50;;;;;;4974080;28;20518;-79
2022/11/16 10:14:37;;;;;;;1.20;0.90;;;23.30;83.30;;;;;;4980659;28;20444;-79
2022/11/16 10:17:09;;;;;;;1.20;0.90;;;23.20;83.60;;;;;;4976937;28;20685;-80
2022/11/16 10:19:46;;;;;;;1.50;0.70;;;23.20;83.80;;;;;;4985899;28;20818;-79
2022/11/16 10:22:25;;;;;;;4.70;0.80;;;23.30;84.20;;;;;;4980928;28;20507;-75
2022/11/16 10:24:57;;;;;;;2.40;1.10;;;23.30;84.40;;;;;;4989865;28;20466;-75
2022/11/16 10:27:55;;;;;;;3.73;1.10;;;23.30;84.40;;;;;;4987899;28;20460;-74
2022/11/16 10:30:22;;;;;;;1.40;0.90;;;23.40;84.30;;;;;;4996124;28;20451;-75
2022/11/16 10:32:53;;;;;;;1.37;1.00;;;23.40;84.00;;;;;;4990239;28;20460;-75
2022/11/16 10:35:27;;;;;;;1.20;0.97;;;23.40;83.90;;;;;;4987932;28;20448;-75
2022/11/16 10:37:57;;;;;;;1.50;1.10;;;23.40;83.70;;;;;;4983291;28;20455;-76
2022/11/16 10:40:29;;;;;;;3.33;1.57;;;23.30;83.50;;;;;;4988474;28;20486;-74
2022/11/16 10:43:05;;;;;;;6.03;1.30;;;23.30;83.40;;;;;;4981578;28;20463;-75
2022/11/16 10:45:38;;;;;;;3.40;1.13;;;23.30;83.50;;;;;;4992172;28;20464;-77
2022/11/16 10:48:11;;;;;;;5.80;1.80;;;;;;;;;;4987894;28;20974;-76
2022/11/16 10:50:41;;;;;;;14.00;2.15;;;21.90;71.20;;;;;;4994169;28;20915;-76
2022/11/16 10:53:14;;;;;;;7.07;1.77;;;19.40;81.20;;;;;;4986564;28;20683;-76
2022/11/16 10:55:40;;;;;;;3.75;1.80;;;19.20;80.60;;;;;;4992924;28;20545;-74
2022/11/16 10:58:08;;;;;;;15.57;1.70;;;19.80;89.80;;;;;;4989186;28;20201;-79
2022/11/16 11:00:39;;;;;;;3.07;1.20;;;21.20;87.60;;;;;;4990712;28;20227;-79
2022/11/16 11:03:06;;;;;;;4.80;1.37;;;21.80;86.20;;;;;;4991697;28;20562;-79
2022/11/16 11:05:35;;;;;;;3.47;1.20;;;22.20;85.70;;;;;;4987263;28;20453;-79
2022/11/16 11:08:03;;;;;;;3.00;1.20;;;22.30;85.40;;;;;;4988945;28;20483;-79
2022/11/16 11:10:32;;;;;;;3.40;1.37;;;22.40;85.30;;;;;;4990924;28;20471;-75
2022/11/16 11:13:22;;;;;;;1.90;1.20;;;22.50;85.40;;;;;;4985928;28;20965;-76
2022/11/16 11:15:50;;;;;;;2.83;1.27;;;22.60;85.00;;;;;;4992685;28;20494;-77
2022/11/16 11:18:20;;;;;;;4.60;1.60;;;22.70;85.00;;;;;;4990574;28;20453;-76
2022/11/16 11:20:49;;;;;;;4.67;1.30;;;22.70;84.90;;;;;;4993652;28;21020;-74
2022/11/16 11:23:19;;;;;;;2.43;1.03;;;22.80;84.80;;;;;;4992010;28;20532;-74
2022/11/16 11:25:52;;;;;;;1.63;1.00;;;22.80;84.10;;;;;;4993809;28;20468;-75
2022/11/16 11:28:24;;;;;;;2.00;1.13;;;22.80;83.50;;;;;;4991850;28;20492;-74
2022/11/16 11:31:00;;;;;;;8.63;1.20;;;22.80;83.20;;;;;;4993426;28;20527;-74
2022/11/16 11:33:30;;;;;;;2.60;1.10;;;22.80;82.70;;;;;;4988974;28;20469;-75
2022/11/16 11:36:01;;;;;;;1.67;0.90;;;22.80;82.50;;;;;;4986358;28;20530;-74
2022/11/16 11:38:28;;;;;;;1.90;1.17;;;22.90;82.50;;;;;;4991181;28;20464;-74
2022/11/16 11:41:03;;;;;;;2.40;0.90;;;22.90;82.30;;;;;;4988394;28;20480;-74
2022/11/16 11:43:34;;;;;;;1.67;0.97;;;23.00;82.20;;;;;;4987416;28;20498;-75
2022/11/16 11:46:29;;;;;;;1.63;1.00;;;22.90;81.90;;;;;;4985159;28;20448;-75
2022/11/16 11:49:10;;;;;;;7.33;1.20;;;22.90;81.70;;;;;;4982454;28;20470;-74
2022/11/16 11:51:41;;;;;;;3.00;1.90;;;23.00;81.70;;;;;;4987906;28;20483;-75
2022/11/16 11:54:17;;;;;;;1.50;1.10;;;23.00;81.50;;;;;;4993381;28;20441;-75
2022/11/16 11:56:44;;;;;;;1.40;0.90;;;23.00;81.30;;;;;;4994753;28;20585;-74
2022/11/16 11:59:18;;;;;;;1.20;0.90;;;23.10;81.30;;;;;;5000877;28;20450;-74
2022/11/16 12:02:01;;;;;;;1.77;0.80;;;23.00;81.10;;;;;;4992358;28;20495;-75
2022/11/16 12:05:11;;;;;;;1.70;1.10;;;23.00;81.00;;;;;;4992015;28;20467;-73
2022/11/16 12:08:06;;;;;;;2.13;0.90;;;23.00;80.90;;;;;;4991670;28;20466;-74
2022/11/16 12:10:41;;;;;;;2.23;0.97;;;23.00;80.90;;;;;;5006705;28;20444;-74
2022/11/16 12:13:36;;;;;;;1.50;1.23;;;23.00;80.90;;;;;;4988500;28;20808;-74
2022/11/16 12:16:12;;;;;;;2.80;1.13;;;23.00;80.90;;;;;;4981694;28;20859;-75
2022/11/16 12:18:52;;;;;;;1.50;0.87;;;23.00;81.00;;;;;;4988062;28;20493;-74
2022/11/16 12:21:27;;;;;;;1.20;1.07;;;23.00;80.80;;;;;;4987783;28;20472;-77
2022/11/16 12:24:12;;;;;;;3.80;1.40;;;23.00;80.80;;;;;;4991937;28;20800;-76
2022/11/16 12:26:50;;;;;;;3.47;1.03;;;23.10;81.50;;;;;;4993815;28;20468;-77
2022/11/16 12:29:25;;;;;;;2.30;0.93;;;23.10;82.60;;;;;;4990817;28;20796;-74
2022/11/16 12:32:27;;;;;;;3.23;1.83;;;23.10;81.50;;;;;;4987997;28;20456;-74
2022/11/16 12:35:06;;;;;;;2.67;1.20;;;23.20;81.50;;;;;;4987332;28;20997;-79
2022/11/16 12:37:39;;;;;;;1.53;0.93;;;23.10;81.40;;;;;;4987313;28;20983;-79
2022/11/16 12:40:29;;;;;;;2.23;1.00;;;23.10;81.60;;;;;;4986953;28;20445;-79
2022/11/16 12:43:01;;;;;;;2.23;1.23;;;23.10;81.70;;;;;;4982767;28;20479;-80
2022/11/16 12:45:43;;;;;;;7.23;1.17;;;23.10;81.70;;;;;;4989574;28;20456;-80
2022/11/16 12:48:39;;;;;;;3.80;1.50;;;23.10;81.70;;;;;;4982500;28;21148;-79
2022/11/16 12:51:12;;;;;;;2.40;0.80;;;23.10;81.70;;;;;;4985454;28;20543;-80
2022/11/16 12:54:06;;;;;;;4.83;1.10;;;23.10;81.60;;;;;;4990749;28;20462;-80
2022/11/16 12:56:41;;;;;;;3.03;1.20;;;23.10;81.60;;;;;;4998799;28;20452;-78
2022/11/16 12:59:36;;;;;;;2.30;1.17;;;23.10;81.50;;;;;;4995001;28;20524;-78
2022/11/16 13:02:12;;;;;;;1.30;0.80;;;23.10;81.50;;;;;;4998407;28;20480;-78
2022/11/16 13:04:44;;;;;;;1.60;1.00;;;23.10;81.40;;;;;;4981546;28;20457;-78
2022/11/16 13:07:16;;;;;;;1.50;1.00;;;23.10;81.40;;;;;;4983417;28;20487;-78
2022/11/16 13:09:48;;;;;;;1.37;0.83;;;23.10;81.30;;;;;;4990734;28;20518;-77
2022/11/16 13:12:18;;;;;;;1.20;0.90;;;23.10;81.30;;;;;;4989432;28;20456;-78
2022/11/16 13:14:48;;;;;;;1.83;1.07;;;23.20;81.30;;;;;;4995996;28;20463;-79
2022/11/16 13:17:20;;;;;;;1.10;1.00;;;23.10;81.20;;;;;;5001432;28;20463;-78
2022/11/16 13:20:03;;;;;;;1.10;0.80;;;23.10;81.10;;;;;;4970225;28;20891;-79
2022/11/16 13:22:34;;;;;;;1.50;0.97;;;23.20;81.30;;;;;;4991374;28;21014;-78
2022/11/16 13:25:12;;;;;;;2.97;1.23;;;23.20;81.20;;;;;;5010393;28;20954;-77
2022/11/16 13:27:48;;;;;;;4.50;1.00;;;23.10;81.00;;;;;;4989165;28;20502;-79
2022/11/16 13:30:21;;;;;;;1.23;0.73;;;23.20;81.20;;;;;;4989950;28;21000;-77
2022/11/16 13:33:03;;;;;;;2.03;0.90;;;23.20;81.10;;;;;;4998694;28;21035;-79
2022/11/16 13:35:35;;;;;;;1.40;0.80;;;23.20;81.00;;;;;;4991445;28;20457;-78
2022/11/16 13:38:02;;;;;;;2.53;0.80;;;23.20;81.00;;;;;;4989142;28;20838;-77
2022/11/16 13:40:30;;;;;;;2.17;0.90;;;23.20;81.00;;;;;;4998582;28;20460;-78
2022/11/16 13:43:07;;;;;;;4.30;0.80;;;23.20;81.00;;;;;;4991438;28;20479;-78
2022/11/16 13:45:37;;;;;;;1.43;0.90;;;23.20;80.90;;;;;;4986737;28;20461;-79